aviador You're here:

KZPH Decoded Metar

in
Report Time2017-04-24 13:15:00
UTC Time2017-04-24 13:17:21
Flight Rules vfr VFR
Wind250° at 06 kt
W.Decomp.*RWY 23: 5.6 kt HW 2.1 kt RCW
RWY 22: 5.2 kt HW 3.0 kt RCW
RWY 19: 3.0 kt HW 5.2 kt RCW
RWY 18: 2.1 kt HW 5.6 kt RCW
W.Rank250° ranks 35
Current wind is below 250° avg. (6.8)
Visibility9999 m
Phenomena:N/A
Clouds:Scattered 035 Hf
Overcast 050 Hf
Expected CloudBase > 2,000 ft AGL from Temp-Dew spread
Ceiling5,000 ft
Temp23°C
Dew Point18°C (74% RH)
QNH1008 hPa
Raw Report
METAR KZPH 241315Z AUTO 25006KT 10SM SCT035 OVC050 23/18 A2977 RMK
AO2 T02270182=

Extra information for KZPH:More info

Social comments